Portada
METAR-TAF:

METAR-TAF

Aeroports :

Mécheria, Algèria

latitud: 34-56N, longitud: 000-26W, altitud: 1149 m

Observació

L'informe es va fer fa 1 hora i 1 minuts, a les 16:00 UTC
Vent 18 kt del Sud/Sud-Oest
Temperatura 25°C
Humitat 14%
Pressió 1014 hPa
Visibilitat: 6000 m
Núvols disperses a una alçada de 3300 ft
Núvols disperses a una alçada de 10000 ft

METAR: DAAY 261600Z 21018KT 6000 SCT033 SCT100 25/M04 Q1014

Hora: 18:01 (17:01 UTC)

Pronòstic

L'informe es va fer fa 3 hores i 1 minuts, a les 14:00 UTC
Pronòstic vàlid del 26 a les 15 UTC al 26 a les 24 UTC
Vent 14 kt del Sud
Visibilitat: 6000 m
Núvols disperses a una alçada de 3300 ft
Núvols disperses a una alçada de 10000 ft

TAF: DAAY 261400Z 2615/2624 19014KT 6000 SCT033 SCT100

Observacions i pronòstics meteorològics de més de 4000 aeroports (METAR i TAF).

Les estacions disponibles són els punts grocs i vermells al mapa.

Posi el ratolí al punt desitjat per veure el nom de l'estació.

Feu clic per veure les observacions i els pronòstics meteorològics.

Per canviar el mapa: feu clic els botons verds amb una creu de color negre per apropar; al botó verd amb un guió per allunyar la imatge; o en les fletxes verdes per a mapes adjacents.


METAR-TAF: